createdAt,value
2023-03-26T00:02:09.416Z,84.72
2023-03-26T00:04:38.658Z,84.72
2023-03-26T00:07:10.096Z,84.75
2023-03-26T00:09:39.092Z,84.94
2023-03-26T00:12:14.136Z,85.01
2023-03-26T00:14:45.374Z,85.10
2023-03-26T00:17:13.859Z,85.12
2023-03-26T00:19:44.286Z,85.38
2023-03-26T00:22:14.613Z,85.27
2023-03-26T00:24:46.279Z,85.48
2023-03-26T00:27:20.898Z,85.76
2023-03-26T00:29:49.895Z,86.05
2023-03-26T00:32:18.290Z,86.11
2023-03-26T00:34:48.000Z,86.11
2023-03-26T00:37:16.477Z,86.32
2023-03-26T00:39:49.484Z,86.54
2023-03-26T00:42:19.076Z,86.77
2023-03-26T00:44:47.457Z,86.90
2023-03-26T00:47:16.347Z,87.16
2023-03-26T00:49:47.089Z,87.43
2023-03-26T00:52:20.585Z,87.41
2023-03-26T00:54:51.631Z,87.22
2023-03-26T00:57:32.997Z,86.08
2023-03-26T01:00:15.743Z,85.77
2023-03-26T01:02:47.297Z,85.15
2023-03-26T01:05:35.226Z,84.73
2023-03-26T01:08:25.934Z,84.21
2023-03-26T01:11:03.058Z,83.58
2023-03-26T01:13:37.491Z,83.16
2023-03-26T01:16:10.017Z,82.93
2023-03-26T01:18:41.361Z,82.44
2023-03-26T01:21:14.802Z,82.44
2023-03-26T01:23:46.749Z,82.71
2023-03-26T01:26:31.308Z,83.34
2023-03-26T01:29:02.889Z,83.50
2023-03-26T01:31:53.203Z,84.01
2023-03-26T01:34:53.530Z,84.07
2023-03-26T01:37:34.456Z,84.42
2023-03-26T01:40:10.209Z,84.49
2023-03-26T01:42:49.448Z,84.38
2023-03-26T01:45:30.725Z,84.46
2023-03-26T01:47:59.285Z,84.76
2023-03-26T01:50:28.912Z,84.55
2023-03-26T01:52:57.293Z,84.06
2023-03-26T01:55:54.207Z,83.66
2023-03-26T01:58:46.996Z,83.07
2023-03-26T02:01:37.347Z,82.56
2023-03-26T02:04:17.652Z,81.88
2023-03-26T02:06:51.790Z,81.75
2023-03-26T02:09:22.811Z,82.16
2023-03-26T02:11:51.256Z,82.40
2023-03-26T02:14:20.081Z,82.34
2023-03-26T02:16:48.974Z,82.15
2023-03-26T02:19:22.118Z,81.96
2023-03-26T02:21:51.694Z,82.25
2023-03-26T02:24:20.773Z,82.44
2023-03-26T02:26:51.037Z,82.38
2023-03-26T02:29:20.783Z,82.12
2023-03-26T02:31:49.998Z,82.15
2023-03-26T02:34:19.621Z,81.85
2023-03-26T02:36:52.361Z,82.11
2023-03-26T02:39:21.119Z,82.04
2023-03-26T02:42:03.707Z,81.78
2023-03-26T02:44:35.472Z,81.80
2023-03-26T02:47:03.956Z,81.54
2023-03-26T02:49:39.196Z,81.09
2023-03-26T02:52:08.299Z,81.26
2023-03-26T02:54:38.005Z,81.25
2023-03-26T02:57:32.908Z,80.96
2023-03-26T03:00:15.393Z,80.87
2023-03-26T03:02:49.067Z,80.76
2023-03-26T03:05:33.274Z,80.79
2023-03-26T03:08:22.798Z,80.57
2023-03-26T03:11:17.350Z,80.80
2023-03-26T03:13:49.212Z,80.67
2023-03-26T03:16:20.706Z,80.68
2023-03-26T03:18:54.865Z,80.58
2023-03-26T03:21:31.163Z,80.29
2023-03-26T03:24:00.110Z,80.40
2023-03-26T03:26:30.831Z,80.22
2023-03-26T03:29:05.206Z,79.96
2023-03-26T03:31:34.305Z,79.92
2023-03-26T03:34:05.654Z,79.93
2023-03-26T03:36:39.057Z,79.73
2023-03-26T03:39:14.296Z,79.83
2023-03-26T03:41:44.010Z,79.95
2023-03-26T03:44:14.748Z,80.04
2023-03-26T03:46:43.368Z,79.78
2023-03-26T03:49:13.047Z,79.85
2023-03-26T03:51:42.964Z,79.86
2023-03-26T03:54:28.547Z,79.66
2023-03-26T03:57:12.136Z,79.39
2023-03-26T03:59:47.780Z,79.19
2023-03-26T04:02:26.668Z,78.98
2023-03-26T04:05:06.627Z,79.04
2023-03-26T04:07:36.535Z,79.10
2023-03-26T04:10:09.113Z,79.25
2023-03-26T04:12:57.464Z,79.18
2023-03-26T04:15:40.498Z,79.15
2023-03-26T04:19:14.818Z,79.17
2023-03-26T04:21:44.208Z,79.22
2023-03-26T04:24:13.116Z,79.25
2023-03-26T04:27:19.903Z,79.31
2023-03-26T04:29:49.980Z,79.61
2023-03-26T04:32:30.340Z,79.91
2023-03-26T04:35:04.196Z,79.94
2023-03-26T04:37:40.263Z,79.92
2023-03-26T04:40:20.661Z,79.95
2023-03-26T04:43:06.820Z,80.07
2023-03-26T04:46:03.667Z,80.47
2023-03-26T04:48:38.837Z,80.87
2023-03-26T04:51:10.340Z,81.07
2023-03-26T04:53:39.462Z,81.22
2023-03-26T04:56:39.553Z,81.48
2023-03-26T04:59:18.327Z,81.75
2023-03-26T05:01:47.516Z,82.09
2023-03-26T05:04:17.048Z,82.16
2023-03-26T05:06:45.505Z,82.07
2023-03-26T05:09:23.930Z,82.23
2023-03-26T05:12:11.554Z,82.34
2023-03-26T05:15:00.524Z,82.61
2023-03-26T05:17:42.939Z,82.83
2023-03-26T05:20:23.599Z,82.93
2023-03-26T05:22:56.722Z,83.12
2023-03-26T05:25:32.844Z,83.29
2023-03-26T05:28:02.263Z,83.41
2023-03-26T05:30:46.514Z,83.26
2023-03-26T05:33:16.643Z,83.14
2023-03-26T05:36:08.058Z,83.09
2023-03-26T05:38:37.330Z,82.84
2023-03-26T05:41:08.326Z,82.72
2023-03-26T05:43:38.240Z,82.55
2023-03-26T05:46:27.462Z,82.41
2023-03-26T05:48:56.080Z,82.50
2023-03-26T05:51:24.563Z,82.59
2023-03-26T05:54:01.238Z,82.60
2023-03-26T05:56:48.297Z,82.08
2023-03-26T05:59:41.931Z,81.91
2023-03-26T06:02:24.060Z,81.52
2023-03-26T06:05:19.552Z,81.41
2023-03-26T06:08:01.141Z,81.27
2023-03-26T06:10:39.673Z,81.01
2023-03-26T06:13:08.351Z,80.34
2023-03-26T06:15:40.640Z,80.33
2023-03-26T06:18:30.183Z,80.26
2023-03-26T06:21:21.417Z,79.96
2023-03-26T06:23:54.715Z,79.65
2023-03-26T06:26:38.354Z,79.68
2023-03-26T06:29:24.138Z,78.99
2023-03-26T06:32:20.362Z,78.18
2023-03-26T06:34:55.724Z,76.95
2023-03-26T06:37:24.207Z,77.02
2023-03-26T06:39:57.917Z,77.06
2023-03-26T06:43:07.834Z,76.19
2023-03-26T06:46:06.111Z,74.42
2023-03-26T06:48:42.383Z,74.34
2023-03-26T06:51:29.538Z,73.72
2023-03-26T06:54:17.778Z,74.16
2023-03-26T06:56:53.484Z,74.93
2023-03-26T06:59:40.659Z,75.10
2023-03-26T07:02:39.202Z,75.22
2023-03-26T07:05:26.478Z,75.14
2023-03-26T07:08:33.666Z,74.65
2023-03-26T07:11:34.706Z,74.74
2023-03-26T07:14:22.541Z,74.23
2023-03-26T07:17:10.172Z,74.53
2023-03-26T07:19:56.474Z,73.55
2023-03-26T07:22:28.319Z,73.38
2023-03-26T07:25:06.932Z,72.51
2023-03-26T07:29:04.096Z,72.37
2023-03-26T07:31:50.699Z,72.53
2023-03-26T07:34:51.476Z,73.17
2023-03-26T07:38:13.931Z,73.70
2023-03-26T07:41:11.392Z,73.99
2023-03-26T07:44:28.522Z,74.15
2023-03-26T07:47:31.768Z,74.71
2023-03-26T07:50:20.963Z,75.16
2023-03-26T07:53:10.761Z,75.30
2023-03-26T07:56:16.587Z,75.99
2023-03-26T07:59:26.269Z,76.54
2023-03-26T08:02:41.685Z,72.90
2023-03-26T08:06:10.787Z,70.98
2023-03-26T08:09:04.047Z,69.77
2023-03-26T08:12:07.320Z,69.09
2023-03-26T08:15:01.505Z,69.84
2023-03-26T08:17:49.200Z,69.98
2023-03-26T08:20:28.620Z,70.47
2023-03-26T08:23:09.546Z,69.48
2023-03-26T08:26:11.417Z,69.20
2023-03-26T08:28:59.814Z,68.80
2023-03-26T08:31:33.867Z,67.88
2023-03-26T08:34:02.375Z,66.87
2023-03-26T08:36:32.179Z,66.86
2023-03-26T08:39:00.552Z,66.65
2023-03-26T08:41:56.694Z,66.93
2023-03-26T08:44:57.738Z,67.09
2023-03-26T08:47:57.336Z,67.62
2023-03-26T08:50:44.953Z,67.55
2023-03-26T08:53:38.047Z,68.48
2023-03-26T08:56:30.744Z,68.84
2023-03-26T08:59:15.052Z,68.93
2023-03-26T09:02:16.720Z,68.97
2023-03-26T09:05:23.292Z,69.17
2023-03-26T09:08:05.808Z,69.78
2023-03-26T09:10:58.047Z,70.44
2023-03-26T09:13:45.472Z,70.85
2023-03-26T09:16:35.799Z,70.67
2023-03-26T09:19:32.987Z,69.30
2023-03-26T09:22:29.468Z,69.18
2023-03-26T09:25:23.970Z,69.71
2023-03-26T09:28:27.879Z,69.99
2023-03-26T09:31:28.360Z,70.32
2023-03-26T09:34:18.097Z,70.01
2023-03-26T09:36:52.213Z,70.40
2023-03-26T09:39:30.425Z,70.47
2023-03-26T09:42:10.071Z,69.92
2023-03-26T09:44:59.343Z,69.26
2023-03-26T09:47:45.977Z,69.29
2023-03-26T09:50:37.576Z,69.51
2023-03-26T09:53:12.000Z,69.71
2023-03-26T09:55:59.836Z,69.74
2023-03-26T09:58:37.330Z,68.64
2023-03-26T10:01:20.803Z,68.14
2023-03-26T10:04:02.359Z,67.21
2023-03-26T10:07:12.657Z,67.32
2023-03-26T10:10:02.117Z,66.79
2023-03-26T10:12:37.547Z,66.30
2023-03-26T10:15:11.663Z,65.46
2023-03-26T10:18:26.676Z,65.42
2023-03-26T10:21:05.067Z,64.95
2023-03-26T10:23:48.480Z,64.54
2023-03-26T10:26:24.846Z,63.77
2023-03-26T10:28:59.783Z,62.52
2023-03-26T10:31:37.590Z,61.95
2023-03-26T10:34:29.541Z,61.52
2023-03-26T10:37:08.075Z,60.93
2023-03-26T10:40:21.607Z,60.79
2023-03-26T10:43:15.148Z,60.52
2023-03-26T10:46:13.576Z,61.19
2023-03-26T10:48:43.348Z,60.70
2023-03-26T10:51:30.773Z,61.03
2023-03-26T10:54:20.461Z,60.95
2023-03-26T10:56:49.976Z,60.59
2023-03-26T10:59:19.375Z,60.53
2023-03-26T11:01:58.029Z,59.01
2023-03-26T11:04:52.077Z,57.74
2023-03-26T11:08:02.134Z,56.13
2023-03-26T11:10:43.624Z,54.11
2023-03-26T11:13:40.782Z,52.42
2023-03-26T11:16:12.082Z,52.45
2023-03-26T11:19:14.000Z,52.37
2023-03-26T11:21:51.703Z,51.27
2023-03-26T11:24:59.715Z,50.71
2023-03-26T11:27:53.183Z,51.00
2023-03-26T11:30:33.752Z,51.78
2023-03-26T11:33:06.048Z,52.58
2023-03-26T11:35:39.923Z,52.15
2023-03-26T11:38:22.064Z,51.73
2023-03-26T11:40:53.319Z,50.57
2023-03-26T11:43:37.339Z,51.35
2023-03-26T11:46:12.306Z,51.82
2023-03-26T11:48:46.524Z,52.23
2023-03-26T11:51:26.756Z,52.23
2023-03-26T11:53:55.238Z,52.17
2023-03-26T11:56:28.358Z,51.30
2023-03-26T11:59:10.250Z,50.28
2023-03-26T12:02:05.063Z,50.13
2023-03-26T12:04:36.404Z,49.01
2023-03-26T12:07:09.684Z,49.82
2023-03-26T12:09:38.256Z,49.41
2023-03-26T12:12:16.263Z,49.91
2023-03-26T12:14:44.644Z,50.93
2023-03-26T12:17:16.433Z,50.17
2023-03-26T12:19:45.799Z,50.65
2023-03-26T12:22:29.859Z,50.41
2023-03-26T12:25:28.556Z,50.25
2023-03-26T12:28:02.999Z,50.24
2023-03-26T12:30:38.323Z,50.26
2023-03-26T12:33:14.482Z,50.58
2023-03-26T12:35:42.986Z,51.25
2023-03-26T12:38:37.974Z,51.29
2023-03-26T12:44:43.805Z,51.75
2023-03-26T12:44:52.752Z,51.78
2023-03-26T12:47:58.451Z,52.12
2023-03-26T12:49:39.701Z,52.65
2023-03-26T12:52:45.360Z,52.45
2023-03-26T12:55:24.899Z,52.44
2023-03-26T12:58:31.170Z,52.14
2023-03-26T13:01:07.485Z,52.60
2023-03-26T13:03:56.298Z,52.42
2023-03-26T13:07:01.817Z,52.10
2023-03-26T13:10:04.109Z,50.92
2023-03-26T13:12:34.372Z,50.61
2023-03-26T13:15:10.643Z,50.25
2023-03-26T13:17:42.666Z,50.50
2023-03-26T13:20:19.372Z,50.39
2023-03-26T13:23:03.218Z,51.10
2023-03-26T13:25:47.062Z,51.86
2023-03-26T13:28:27.933Z,52.88
2023-03-26T13:31:25.141Z,53.13
2023-03-26T13:34:36.497Z,52.75
2023-03-26T13:37:27.301Z,53.14
2023-03-26T13:40:10.629Z,53.61
2023-03-26T13:42:43.312Z,54.31
2023-03-26T13:45:12.086Z,55.07
2023-03-26T13:47:46.657Z,55.71
2023-03-26T13:50:19.002Z,56.19
2023-03-26T13:53:07.248Z,57.31
2023-03-26T13:55:38.602Z,59.37
2023-03-26T13:58:12.008Z,60.43
2023-03-26T14:00:59.551Z,61.05
2023-03-26T14:03:50.785Z,60.56
2023-03-26T14:06:28.655Z,58.95
2023-03-26T14:09:00.009Z,59.14
2023-03-26T14:11:58.299Z,58.94
2023-03-26T14:14:49.101Z,59.23
2023-03-26T14:17:39.233Z,58.40
2023-03-26T14:20:31.836Z,58.41
2023-03-26T14:23:22.441Z,58.12
2023-03-26T14:25:54.923Z,57.51
2023-03-26T14:28:39.475Z,56.42
2023-03-26T14:31:15.141Z,55.01
2023-03-26T14:33:59.905Z,53.64
2023-03-26T14:36:47.017Z,51.28
2023-03-26T14:39:32.363Z,49.41
2023-03-26T14:42:20.131Z,47.79
2023-03-26T14:44:52.712Z,47.86
2023-03-26T14:47:23.879Z,46.60
2023-03-26T14:50:04.437Z,45.55
2023-03-26T14:52:45.571Z,45.54
2023-03-26T14:55:37.752Z,45.40
2023-03-26T14:58:24.773Z,45.42
2023-03-26T15:01:11.712Z,44.59
2023-03-26T15:03:52.364Z,44.53
2023-03-26T15:06:56.682Z,44.03
2023-03-26T15:09:50.258Z,42.47
2023-03-26T15:12:30.423Z,41.48
2023-03-26T15:15:34.744Z,40.11
2023-03-26T15:18:42.497Z,39.35
2023-03-26T15:21:27.127Z,38.90
2023-03-26T15:24:22.664Z,38.07
2023-03-26T15:27:25.461Z,37.27
2023-03-26T15:29:59.530Z,36.65
2023-03-26T15:32:57.403Z,37.03
2023-03-26T15:36:05.382Z,38.29
2023-03-26T15:38:59.499Z,40.02
2023-03-26T15:41:34.638Z,41.53
2023-03-26T15:44:24.893Z,43.08
2023-03-26T15:47:17.075Z,44.34
2023-03-26T15:49:54.477Z,45.64
2023-03-26T15:52:33.401Z,46.55
2023-03-26T15:55:18.886Z,47.58
2023-03-26T15:58:01.703Z,48.58
2023-03-26T16:00:34.488Z,49.29
2023-03-26T16:03:11.274Z,50.02
2023-03-26T16:06:16.189Z,50.74
2023-03-26T16:08:53.392Z,51.85
2023-03-26T16:11:47.072Z,51.98
2023-03-26T16:14:42.485Z,52.53
2023-03-26T16:17:25.412Z,53.85
2023-03-26T16:20:23.298Z,55.33
2023-03-26T16:22:55.760Z,58.09
2023-03-26T16:25:29.635Z,59.72
2023-03-26T16:28:13.334Z,61.03
2023-03-26T16:30:42.488Z,61.61
2023-03-26T16:33:15.817Z,62.03
2023-03-26T16:36:51.700Z,62.55
2023-03-26T16:39:40.954Z,62.61
2023-03-26T16:42:15.264Z,62.63
2023-03-26T16:44:49.192Z,62.90
2023-03-26T16:47:37.738Z,63.28
2023-03-26T16:50:36.831Z,63.69
2023-03-26T16:53:24.679Z,64.11
2023-03-26T16:56:00.208Z,64.57
2023-03-26T16:58:56.329Z,65.05
2023-03-26T17:01:27.972Z,65.18
2023-03-26T17:04:10.424Z,65.28
2023-03-26T17:07:01.988Z,65.32
2023-03-26T17:09:44.350Z,65.55
2023-03-26T17:12:14.154Z,65.77
2023-03-26T17:15:13.687Z,66.00
2023-03-26T17:17:55.749Z,66.31
2023-03-26T17:20:37.165Z,66.68
2023-03-26T17:23:11.076Z,67.05
2023-03-26T17:26:06.095Z,67.49
2023-03-26T17:29:13.552Z,67.65
2023-03-26T17:31:49.624Z,67.91
2023-03-26T17:34:49.659Z,68.36
2023-03-26T17:37:21.111Z,68.69
2023-03-26T17:39:53.491Z,69.04
2023-03-26T17:42:35.614Z,69.32
2023-03-26T17:45:21.128Z,69.54
2023-03-26T17:47:59.003Z,69.76
2023-03-26T17:50:54.554Z,70.02
2023-03-26T17:53:31.414Z,70.03
2023-03-26T17:56:04.586Z,70.10
2023-03-26T17:58:55.074Z,70.11
2023-03-26T18:01:36.321Z,70.00
2023-03-26T18:04:07.599Z,69.97
2023-03-26T18:07:04.244Z,70.12
2023-03-26T18:10:01.502Z,70.31
2023-03-26T18:12:39.504Z,70.66
2023-03-26T18:15:24.375Z,70.70
2023-03-26T18:17:58.734Z,70.83
2023-03-26T18:20:29.084Z,70.95
2023-03-26T18:22:59.146Z,71.01
2023-03-26T18:25:32.448Z,70.93
2023-03-26T18:28:02.665Z,70.71
2023-03-26T18:30:31.143Z,70.91
2023-03-26T18:33:00.531Z,70.90
2023-03-26T18:35:39.622Z,70.64
2023-03-26T18:38:36.780Z,70.55
2023-03-26T18:41:17.710Z,70.77
2023-03-26T18:43:48.855Z,70.63
2023-03-26T18:46:17.418Z,70.65
2023-03-26T18:48:47.253Z,70.52
2023-03-26T18:51:23.339Z,70.72
2023-03-26T18:54:02.843Z,70.90
2023-03-26T18:56:39.215Z,70.77
2023-03-26T18:59:30.156Z,70.63
2023-03-26T19:02:14.306Z,70.64
2023-03-26T19:04:45.424Z,70.60
2023-03-26T19:07:25.694Z,70.56
2023-03-26T19:09:56.731Z,70.36
2023-03-26T19:12:33.316Z,70.31
2023-03-26T19:15:13.897Z,70.10
2023-03-26T19:17:48.980Z,70.04
2023-03-26T19:20:28.968Z,70.08
2023-03-26T19:22:57.348Z,70.13
2023-03-26T19:25:29.317Z,70.27
2023-03-26T19:27:57.798Z,70.44
2023-03-26T19:30:31.073Z,70.57
2023-03-26T19:33:13.987Z,70.52
2023-03-26T19:35:46.320Z,70.54
2023-03-26T19:38:25.840Z,70.64
2023-03-26T19:40:58.076Z,70.57
2023-03-26T19:43:29.049Z,70.39
2023-03-26T19:46:00.250Z,70.42
2023-03-26T19:48:46.176Z,70.28
2023-03-26T19:51:23.184Z,70.15
2023-03-26T19:53:55.963Z,70.10
2023-03-26T19:56:24.296Z,70.15
2023-03-26T19:58:52.846Z,70.04
2023-03-26T20:01:27.894Z,70.03
2023-03-26T20:03:59.076Z,69.98
2023-03-26T20:06:42.500Z,69.97
2023-03-26T20:09:12.864Z,70.09
2023-03-26T20:11:41.772Z,70.26
2023-03-26T20:14:21.925Z,70.16
2023-03-26T20:16:50.577Z,70.09
2023-03-26T20:19:19.405Z,70.15
2023-03-26T20:21:55.982Z,70.23
2023-03-26T20:24:27.550Z,70.32
2023-03-26T20:26:55.814Z,70.36
2023-03-26T20:29:24.194Z,70.43
2023-03-26T20:31:52.829Z,70.81
2023-03-26T20:34:23.580Z,70.81
2023-03-26T20:36:55.587Z,71.02
2023-03-26T20:39:25.499Z,71.15
2023-03-26T20:41:55.160Z,71.22
2023-03-26T20:44:27.026Z,71.14
2023-03-26T20:46:57.546Z,71.29
2023-03-26T20:49:29.778Z,71.33
2023-03-26T20:51:59.904Z,71.17
2023-03-26T20:54:30.535Z,71.07
2023-03-26T20:56:59.835Z,71.10
2023-03-26T20:59:33.188Z,71.08
2023-03-26T21:02:02.174Z,71.01
2023-03-26T21:04:32.385Z,71.10
2023-03-26T21:07:11.116Z,71.17
2023-03-26T21:09:48.936Z,71.28
2023-03-26T21:12:35.186Z,71.21
2023-03-26T21:15:13.493Z,71.23
2023-03-26T21:17:46.815Z,71.40
2023-03-26T21:20:16.927Z,71.64
2023-03-26T21:23:05.270Z,71.78
2023-03-26T21:26:12.669Z,71.80
2023-03-26T21:28:46.888Z,71.96
2023-03-26T21:31:20.922Z,72.03
2023-03-26T21:33:50.203Z,72.17
2023-03-26T21:36:23.231Z,72.41
2023-03-26T21:38:54.773Z,72.78
2023-03-26T21:41:36.247Z,72.74
2023-03-26T21:44:04.655Z,72.75
2023-03-26T21:46:33.680Z,72.80
2023-03-26T21:49:03.538Z,72.82
2023-03-26T21:51:34.111Z,72.74
2023-03-26T21:54:28.155Z,72.85
2023-03-26T21:57:24.801Z,72.90
2023-03-26T22:00:15.725Z,73.04
2023-03-26T22:02:47.311Z,72.92
2023-03-26T22:05:18.012Z,73.07
2023-03-26T22:07:55.596Z,73.11
2023-03-26T22:10:24.183Z,73.11
2023-03-26T22:12:54.100Z,72.94
2023-03-26T22:15:22.488Z,72.80
2023-03-26T22:17:54.337Z,72.67
2023-03-26T22:20:27.746Z,72.67
2023-03-26T22:22:56.331Z,72.60
2023-03-26T22:25:24.919Z,72.60
2023-03-26T22:27:55.556Z,72.61
2023-03-26T22:30:24.038Z,72.35
2023-03-26T22:32:52.587Z,72.36
2023-03-26T22:35:21.223Z,72.41
2023-03-26T22:37:49.709Z,72.68
2023-03-26T22:40:18.196Z,72.66
2023-03-26T22:42:47.070Z,72.88
2023-03-26T22:45:17.496Z,72.75
2023-03-26T22:47:46.568Z,72.77
2023-03-26T22:50:17.297Z,72.49
2023-03-26T22:52:46.531Z,72.53
2023-03-26T22:55:16.037Z,72.57
2023-03-26T22:57:57.755Z,72.87
2023-03-26T23:00:26.810Z,73.00
2023-03-26T23:03:00.745Z,73.20
2023-03-26T23:05:33.121Z,73.17
2023-03-26T23:08:03.134Z,73.30
2023-03-26T23:10:31.923Z,73.29
2023-03-26T23:13:01.738Z,73.40
2023-03-26T23:15:30.833Z,73.48
2023-03-26T23:17:59.682Z,73.59
2023-03-26T23:20:29.442Z,73.61
2023-03-26T23:22:58.233Z,73.78
2023-03-26T23:25:32.998Z,73.66
2023-03-26T23:28:03.904Z,73.67
2023-03-26T23:30:32.293Z,73.76
2023-03-26T23:33:01.875Z,73.81
2023-03-26T23:35:30.405Z,73.91
2023-03-26T23:38:02.649Z,74.17
2023-03-26T23:40:32.568Z,74.17
2023-03-26T23:43:00.850Z,74.22
2023-03-26T23:45:30.635Z,74.34
2023-03-26T23:47:59.171Z,74.10
2023-03-26T23:50:31.720Z,74.18
2023-03-26T23:53:00.319Z,74.15
2023-03-26T23:55:29.610Z,74.16
2023-03-26T23:57:58.192Z,74.10
